Time,TemperatureF,DewpointF,PressureIn,WindDirection,WindDirectionDegrees,WindSpeedMPH,WindSpeedGustMPH,Humidity,HourlyPrecipIn,Conditions,Clouds,dailyrainin,SolarRadiationWatts/m^2,SoftwareType,DateUTC
2014-01-18 00:11:00,30.0,8.0,-100.00,NW,314,6.0,9.0,39,0.00,,,0.00,0.000000,,2014-01-18 07:11:00,
2014-01-18 00:42:00,28.0,7.0,-100.00,SE,133,5.0,7.0,41,0.00,,,0.00,0.000000,,2014-01-18 07:42:00,
2014-01-18 01:11:00,28.0,7.0,-100.00,SE,133,5.0,7.0,41,0.00,,,0.00,0.000000,,2014-01-18 08:11:00,
2014-01-18 01:42:00,29.0,7.0,-100.00,South,191,2.0,5.0,39,-99.99,,,0.00,0.000000,,2014-01-18 08:42:00,
2014-01-18 01:52:00,29.0,7.0,-100.00,South,191,2.0,5.0,39,-99.99,,,0.00,0.000000,,2014-01-18 08:52:00,
2014-01-18 02:01:00,29.0,7.0,-100.00,South,191,2.0,5.0,39,-99.99,,,0.00,0.000000,,2014-01-18 09:01:00,
2014-01-18 02:11:00,29.0,7.0,-100.00,South,191,2.0,5.0,39,-99.99,,,0.00,0.000000,,2014-01-18 09:11:00,
2014-01-18 02:43:00,28.0,7.0,-100.00,SSE,149,4.0,5.0,40,0.00,,,0.00,0.000000,,2014-01-18 09:43:00,
2014-01-18 03:42:00,30.0,8.0,-100.00,SSE,152,3.0,5.0,38,0.00,,,0.00,0.000000,,2014-01-18 10:42:00,
2014-01-18 04:11:00,30.0,8.0,-100.00,SSE,152,3.0,5.0,38,0.00,,,0.00,0.000000,,2014-01-18 11:11:00,
2014-01-18 04:42:00,27.0,5.0,-100.00,NNW,341,4.0,5.0,39,0.00,,,0.00,0.000000,,2014-01-18 11:42:00,
2014-01-18 05:11:00,27.0,5.0,-100.00,NNW,341,4.0,5.0,39,0.00,,,0.00,0.000000,,2014-01-18 12:11:00,
2014-01-18 05:42:00,26.0,7.0,-100.00,ENE,75,3.0,7.0,43,0.00,,,0.00,0.000000,,2014-01-18 12:42:00,
2014-01-18 06:11:00,26.0,7.0,-100.00,ENE,75,3.0,7.0,43,0.00,,,0.00,0.000000,,2014-01-18 13:11:00,
2014-01-18 06:42:00,28.0,8.0,-100.00,NE,44,2.0,4.0,42,0.00,,,0.00,0.000000,,2014-01-18 13:42:00,
2014-01-18 07:11:00,28.0,8.0,-100.00,NE,44,2.0,4.0,42,0.00,,,0.00,0.000000,,2014-01-18 14:11:00,
2014-01-18 07:42:00,29.0,8.0,-100.00,NNE,33,3.0,5.0,41,-99.99,,,0.00,0.000000,,2014-01-18 14:42:00,
2014-01-18 08:11:00,29.0,8.0,-100.00,NNE,33,3.0,5.0,41,-99.99,,,0.00,0.000000,,2014-01-18 15:11:00,
2014-01-18 09:12:00,37.0,10.0,-100.00,South,189,3.0,6.0,32,0.00,,,0.00,204.000000,,2014-01-18 16:12:00,
2014-01-18 10:12:00,42.0,9.0,-100.00,NNW,334,2.0,6.0,25,0.00,,,0.00,355.000000,,2014-01-18 17:12:00,
2014-01-18 11:43:00,42.0,12.0,-100.00,SSE,160,4.0,8.0,29,0.00,,,0.00,477.000000,,2014-01-18 18:43:00,
2014-01-18 11:52:00,42.0,12.0,-100.00,SSE,160,4.0,8.0,29,0.00,,,0.00,477.000000,,2014-01-18 18:52:00,
2014-01-18 12:02:00,42.0,12.0,-100.00,SSE,160,4.0,8.0,29,0.00,,,0.00,477.000000,,2014-01-18 19:02:00,
2014-01-18 12:11:00,42.0,12.0,-100.00,SSE,160,4.0,8.0,29,0.00,,,0.00,477.000000,,2014-01-18 19:11:00,
2014-01-18 12:52:00,47.0,14.0,-100.00,SSE,162,4.0,9.0,26,0.00,,,0.00,533.000000,,2014-01-18 19:52:00,
2014-01-18 13:01:00,47.0,14.0,-100.00,SSE,162,4.0,9.0,26,0.00,,,0.00,533.000000,,2014-01-18 20:01:00,
2014-01-18 13:11:00,47.0,14.0,-100.00,SSE,162,4.0,9.0,26,0.00,,,0.00,533.000000,,2014-01-18 20:11:00,
2014-01-18 13:12:00,47.0,13.0,-100.00,SSE,156,6.0,10.0,25,0.00,,,0.00,538.000000,,2014-01-18 20:12:00,
2014-01-18 13:42:00,47.0,13.0,-100.00,SSE,156,6.0,10.0,25,0.00,,,0.00,538.000000,,2014-01-18 20:42:00,
2014-01-18 13:52:00,47.0,13.0,-100.00,SSE,156,6.0,10.0,25,0.00,,,0.00,538.000000,,2014-01-18 20:52:00,
2014-01-18 14:02:00,47.0,13.0,-100.00,SSE,156,6.0,10.0,25,0.00,,,0.00,538.000000,,2014-01-18 21:02:00,
2014-01-18 14:12:00,47.0,13.0,-100.00,South,184,5.0,10.0,25,0.00,,,0.00,489.000000,,2014-01-18 21:12:00,
2014-01-18 14:43:00,47.0,13.0,-100.00,South,184,5.0,10.0,25,0.00,,,0.00,489.000000,,2014-01-18 21:43:00,
2014-01-18 14:53:00,47.0,13.0,-100.00,South,184,5.0,10.0,25,0.00,,,0.00,489.000000,,2014-01-18 21:53:00,
2014-01-18 15:03:00,47.0,13.0,-100.00,South,184,5.0,10.0,25,0.00,,,0.00,489.000000,,2014-01-18 22:03:00,
2014-01-18 15:43:00,46.0,11.0,-100.00,SSW,193,6.0,11.0,24,0.00,,,0.00,312.000000,,2014-01-18 22:43:00,
2014-01-18 15:53:00,46.0,11.0,-100.00,SSW,193,6.0,11.0,24,0.00,,,0.00,312.000000,,2014-01-18 22:53:00,
2014-01-18 16:02:00,46.0,11.0,-100.00,SSW,193,6.0,11.0,24,0.00,,,0.00,312.000000,,2014-01-18 23:02:00,
2014-01-18 16:11:00,46.0,11.0,-100.00,SSW,193,6.0,11.0,24,0.00,,,0.00,312.000000,,2014-01-18 23:11:00,
2014-01-18 16:42:00,43.0,10.0,-100.00,SSW,210,5.0,10.0,25,0.00,,,0.00,86.000000,,2014-01-18 23:42:00,
2014-01-18 16:53:00,43.0,10.0,-100.00,SSW,210,5.0,10.0,25,0.00,,,0.00,86.000000,,2014-01-18 23:53:00,
2014-01-18 17:02:00,43.0,10.0,-100.00,SSW,210,5.0,10.0,25,0.00,,,0.00,86.000000,,2014-01-19 00:02:00,
2014-01-18 17:11:00,43.0,10.0,-100.00,SSW,210,5.0,10.0,25,0.00,,,0.00,86.000000,,2014-01-19 00:11:00,
2014-01-18 17:42:00,38.0,8.0,-100.00,SW,219,4.0,8.0,28,0.00,,,-99.99,24.000000,,2014-01-19 00:42:00,
2014-01-18 17:52:00,38.0,8.0,-100.00,SW,219,4.0,8.0,28,0.00,,,-99.99,24.000000,,2014-01-19 00:52:00,
2014-01-18 18:02:00,38.0,8.0,-100.00,SW,219,4.0,8.0,28,0.00,,,-99.99,24.000000,,2014-01-19 01:02:00,
2014-01-18 18:11:00,38.0,8.0,-100.00,SW,219,4.0,8.0,28,0.00,,,-99.99,24.000000,,2014-01-19 01:11:00,
2014-01-18 18:42:00,38.0,9.0,-100.00,NNW,330,4.0,7.0,29,0.00,,,0.00,1.000000,,2014-01-19 01:42:00,
2014-01-18 18:52:00,38.0,9.0,-100.00,NNW,330,4.0,7.0,29,0.00,,,0.00,1.000000,,2014-01-19 01:52:00,
2014-01-18 19:02:00,38.0,9.0,-100.00,NNW,330,4.0,7.0,29,0.00,,,0.00,1.000000,,2014-01-19 02:02:00,
2014-01-18 19:11:00,38.0,9.0,-100.00,NNW,330,4.0,7.0,29,0.00,,,0.00,1.000000,,2014-01-19 02:11:00,
2014-01-18 19:42:00,37.0,9.0,-100.00,NW,319,3.0,5.0,31,0.00,,,0.00,0.000000,,2014-01-19 02:42:00,
2014-01-18 19:52:00,37.0,9.0,-100.00,NW,319,3.0,5.0,31,0.00,,,0.00,0.000000,,2014-01-19 02:52:00,
2014-01-18 20:02:00,37.0,9.0,-100.00,NW,319,3.0,5.0,31,0.00,,,0.00,0.000000,,2014-01-19 03:02:00,
2014-01-18 20:11:00,37.0,9.0,-100.00,NW,319,3.0,5.0,31,0.00,,,0.00,0.000000,,2014-01-19 03:11:00,
2014-01-18 20:12:00,37.0,9.0,-100.00,North,350,4.0,5.0,31,0.00,,,0.00,0.000000,,2014-01-19 03:12:00,
2014-01-18 20:43:00,37.0,9.0,-100.00,North,350,4.0,5.0,31,0.00,,,0.00,0.000000,,2014-01-19 03:43:00,
2014-01-18 21:03:00,-999.0,-99.9,-100.00,North,350,4.0,5.0,-999,0.00,,,0.00,0.000000,,2014-01-19 04:03:00,
2014-01-18 21:12:00,36.0,8.0,-100.00,North,4,3.0,4.0,31,0.00,,,0.00,0.000000,,2014-01-19 04:12:00,
2014-01-18 21:43:00,36.0,8.0,-100.00,North,4,3.0,4.0,31,0.00,,,0.00,0.000000,,2014-01-19 04:43:00,
2014-01-18 22:12:00,35.0,9.0,-100.00,NNE,13,5.0,6.0,34,0.00,,,0.00,0.000000,,2014-01-19 05:12:00,
2014-01-18 22:43:00,35.0,9.0,-100.00,NNE,13,5.0,6.0,34,0.00,,,0.00,0.000000,,2014-01-19 05:43:00,
2014-01-18 23:42:00,35.0,9.0,-100.00,North,1,3.0,5.0,33,0.00,,,0.00,0.000000,,2014-01-19 06:42:00,